createdAt,value
2022-10-09T00:04:11.431Z,102193.38
2022-10-09T00:09:27.457Z,102199.47
2022-10-09T00:14:43.131Z,102200.75
2022-10-09T00:19:58.153Z,102202.78
2022-10-09T00:25:13.132Z,102195.63
2022-10-09T00:30:27.994Z,102200.47
2022-10-09T00:35:43.190Z,102202.50
2022-10-09T00:40:58.184Z,102203.56
2022-10-09T00:46:13.220Z,102200.22
2022-10-09T00:51:28.126Z,102194.88
2022-10-09T00:56:43.134Z,102195.13
2022-10-09T01:01:58.361Z,102194.38
2022-10-09T01:07:14.418Z,102197.69
2022-10-09T01:12:30.233Z,102193.34
2022-10-09T01:17:45.173Z,102189.03
2022-10-09T01:23:00.459Z,102194.59
2022-10-09T01:28:16.203Z,102184.72
2022-10-09T01:33:31.168Z,102170.75
2022-10-09T01:38:46.113Z,102170.50
2022-10-09T01:44:01.121Z,102167.69
2022-10-09T01:49:16.142Z,102170.25
2022-10-09T01:54:31.398Z,102164.38
2022-10-09T01:59:47.386Z,102152.44
2022-10-09T02:05:03.113Z,102150.91
2022-10-09T02:10:18.113Z,102154.97
2022-10-09T02:15:33.203Z,102142.53
2022-10-09T02:20:48.172Z,102136.69
2022-10-09T02:26:03.213Z,102135.97
2022-10-09T02:31:18.198Z,102133.41
2022-10-09T02:36:33.476Z,102126.81
2022-10-09T02:41:49.441Z,102129.06
2022-10-09T02:47:05.127Z,102130.88
2022-10-09T02:52:20.220Z,102123.72
2022-10-09T02:57:35.120Z,102133.38
2022-10-09T03:02:50.442Z,102127.78
2022-10-09T03:08:06.153Z,102118.66
2022-10-09T03:13:21.189Z,102118.13
2022-10-09T03:18:36.420Z,102117.38
2022-10-09T03:23:52.172Z,102113.56
2022-10-09T03:29:07.465Z,102109.53
2022-10-09T03:34:23.141Z,102117.13
2022-10-09T03:39:38.147Z,102109.25
2022-10-09T03:44:53.184Z,102109.00
2022-10-09T03:50:08.450Z,102123.22
2022-10-09T03:55:24.130Z,102123.22
2022-10-09T04:00:39.469Z,102122.19
2022-10-09T04:05:55.192Z,102124.75
2022-10-09T04:11:10.176Z,102125.25
2022-10-09T04:16:25.560Z,102122.44
2022-10-09T04:21:41.163Z,102129.56
2022-10-09T04:26:56.486Z,102125.50
2022-10-09T04:32:12.124Z,102137.19
2022-10-09T04:37:27.571Z,102122.19
2022-10-09T04:42:43.193Z,102118.41
2022-10-09T04:47:58.149Z,102111.03
2022-10-09T04:53:13.476Z,102106.19
2022-10-09T04:58:29.143Z,102110.28
2022-10-09T05:03:44.203Z,102101.59
2022-10-09T05:08:59.460Z,102105.69
2022-10-09T05:14:14.910Z,102108.47
2022-10-09T05:19:29.947Z,102098.03
2022-10-09T05:24:45.474Z,102096.03
2022-10-09T05:30:01.199Z,102090.44
2022-10-09T05:35:16.484Z,102095.25
2022-10-09T05:40:32.240Z,102094.00
2022-10-09T05:45:47.501Z,102091.97
2022-10-09T05:51:02.906Z,102094.00
2022-10-09T05:56:18.192Z,102096.03
2022-10-09T06:01:33.262Z,102093.22
2022-10-09T06:06:48.179Z,102094.00
2022-10-09T06:12:03.141Z,102100.34
2022-10-09T06:17:18.177Z,102091.97
2022-10-09T06:22:33.145Z,102098.81
2022-10-09T06:27:48.172Z,102109.47
2022-10-09T06:33:03.490Z,102105.47
2022-10-09T06:38:19.202Z,102113.56
2022-10-09T06:43:34.136Z,102108.00
2022-10-09T06:48:49.178Z,102112.28
2022-10-09T06:54:04.672Z,102110.25
2022-10-09T06:59:20.441Z,102115.59
2022-10-09T07:04:36.187Z,102120.94
2022-10-09T07:09:51.153Z,102124.00
2022-10-09T07:15:06.203Z,102119.94
2022-10-09T07:20:21.554Z,102119.44
2022-10-09T07:25:37.472Z,102119.44
2022-10-09T07:30:53.241Z,102122.22
2022-10-09T07:36:08.218Z,102122.44
2022-10-09T07:41:23.223Z,102120.47
2022-10-09T07:46:38.241Z,102113.81
2022-10-09T07:51:53.466Z,102110.28
2022-10-09T07:57:10.291Z,102109.53
2022-10-09T08:02:25.976Z,102118.13
2022-10-09T08:07:41.160Z,102113.31
2022-10-09T08:12:56.168Z,102113.31
2022-10-09T08:18:11.170Z,102109.28
2022-10-09T08:23:26.183Z,102102.94
2022-10-09T08:28:41.639Z,102089.72
2022-10-09T08:33:57.183Z,102103.16
2022-10-09T08:39:12.203Z,102092.50
2022-10-09T08:44:27.201Z,102091.22
2022-10-09T08:49:42.240Z,102082.34
2022-10-09T08:55:35.177Z,102081.06
2022-10-09T09:00:50.387Z,102071.41
2022-10-09T09:06:06.468Z,102070.16
2022-10-09T09:11:23.190Z,102065.34
2022-10-09T09:16:38.507Z,102071.69
2022-10-09T09:21:54.186Z,102065.34
2022-10-09T09:27:09.222Z,102057.97
2022-10-09T09:32:24.527Z,102042.72
2022-10-09T09:37:40.175Z,102041.72
2022-10-09T09:42:55.180Z,102038.41
2022-10-09T09:48:10.178Z,102035.84
2022-10-09T09:53:25.226Z,102025.69
2022-10-09T09:58:40.194Z,102017.56
2022-10-09T10:03:55.239Z,102013.75
2022-10-09T10:09:10.530Z,102010.44
2022-10-09T10:14:26.201Z,101995.97
2022-10-09T10:19:41.459Z,101989.84
2022-10-09T10:24:57.506Z,101992.38
2022-10-09T10:30:13.163Z,101991.38
2022-10-09T10:35:28.181Z,101979.44
2022-10-09T10:40:42.942Z,101972.06
2022-10-09T10:45:58.151Z,101970.25
2022-10-09T10:51:13.215Z,101954.50
2022-10-09T10:56:28.185Z,101944.34
2022-10-09T11:01:43.175Z,101938.22
2022-10-09T11:06:58.398Z,101925.28
2022-10-09T11:12:19.866Z,101929.81
2022-10-09T11:17:49.482Z,101913.28
2022-10-09T11:23:05.173Z,101907.94
2022-10-09T11:28:20.285Z,101904.88
2022-10-09T11:33:35.188Z,101881.97
2022-10-09T11:38:50.210Z,101880.72
2022-10-09T11:44:05.474Z,101875.63
2022-10-09T11:49:21.155Z,101861.09
2022-10-09T11:54:36.205Z,101851.47
2022-10-09T11:59:51.231Z,101844.06
2022-10-09T12:05:06.247Z,101833.84
2022-10-09T12:10:21.189Z,101828.25
2022-10-09T12:15:36.513Z,101816.28
2022-10-09T12:20:52.522Z,101805.88
2022-10-09T12:26:08.568Z,101792.09
2022-10-09T12:31:24.225Z,101788.81
2022-10-09T12:36:39.190Z,101780.66
2022-10-09T12:41:53.987Z,101757.75
2022-10-09T12:47:09.244Z,101753.16
2022-10-09T12:52:24.510Z,101739.41
2022-10-09T12:57:40.486Z,101724.13
2022-10-09T13:02:56.588Z,101722.84
2022-10-09T13:08:12.212Z,101704.78
2022-10-09T13:13:27.311Z,101706.59
2022-10-09T13:18:42.263Z,101692.09
2022-10-09T13:23:57.219Z,101689.81
2022-10-09T13:29:12.233Z,101680.34
2022-10-09T13:34:27.489Z,101664.41
2022-10-09T13:39:43.210Z,101666.53
2022-10-09T13:44:58.616Z,101646.75
2022-10-09T13:50:13.978Z,101650.34
2022-10-09T13:55:29.215Z,101636.41
2022-10-09T14:00:44.216Z,101627.53
2022-10-09T14:05:59.201Z,101618.19
2022-10-09T14:11:14.847Z,101616.44
2022-10-09T14:16:30.198Z,101601.44
2022-10-09T14:21:45.233Z,101599.94
2022-10-09T14:27:00.261Z,101584.25
2022-10-09T14:32:15.216Z,101582.44
2022-10-09T14:37:40.957Z,101577.63
2022-10-09T14:42:57.207Z,101567.50
2022-10-09T14:48:12.198Z,101563.72
2022-10-09T14:53:27.227Z,101556.59
2022-10-09T14:58:42.280Z,101543.16
2022-10-09T15:03:57.276Z,101545.94
2022-10-09T15:09:12.215Z,101539.06
2022-10-09T15:14:27.599Z,101527.88
2022-10-09T15:19:43.259Z,101516.69
2022-10-09T15:24:58.200Z,101510.34
2022-10-09T15:30:13.206Z,101505.53
2022-10-09T15:35:28.520Z,101508.31
2022-10-09T15:40:44.203Z,101497.69
2022-10-09T15:45:59.590Z,101489.31
2022-10-09T15:51:14.962Z,101483.72
2022-10-09T15:56:30.201Z,101468.75
2022-10-09T16:01:45.225Z,101465.94
2022-10-09T16:07:00.216Z,101454.53
2022-10-09T16:12:15.325Z,101455.03
2022-10-09T16:17:30.219Z,101446.44
2022-10-09T16:22:45.281Z,101435.06
2022-10-09T16:28:00.362Z,101436.34
2022-10-09T16:33:15.238Z,101436.34
2022-10-09T16:38:30.534Z,101428.44
2022-10-09T16:43:46.248Z,101426.19
2022-10-09T16:49:01.210Z,101422.66
2022-10-09T16:54:16.213Z,101424.69
2022-10-09T16:59:31.213Z,101422.41
2022-10-09T17:04:47.318Z,101415.34
2022-10-09T17:10:02.528Z,101421.41
2022-10-09T17:15:18.244Z,101419.88
2022-10-09T17:20:33.264Z,101417.44
2022-10-09T17:25:48.221Z,101424.28
2022-10-09T17:31:03.651Z,101425.31
2022-10-09T17:36:19.246Z,101417.47
2022-10-09T17:41:34.263Z,101411.66
2022-10-09T17:46:49.202Z,101403.00
2022-10-09T17:52:04.043Z,101402.25
2022-10-09T17:57:19.201Z,101409.16
2022-10-09T18:02:34.222Z,101406.13
2022-10-09T18:07:49.404Z,101389.91
2022-10-09T18:13:05.539Z,101383.28
2022-10-09T18:18:21.238Z,101377.25
2022-10-09T18:23:36.285Z,101383.06
2022-10-09T18:28:51.534Z,101375.22
2022-10-09T18:34:06.248Z,101369.38
2022-10-09T18:39:21.289Z,101371.44
2022-10-09T18:44:36.234Z,101354.47
2022-10-09T18:49:51.299Z,101359.28
2022-10-09T18:55:06.561Z,101352.19
2022-10-09T19:00:22.578Z,101354.97
2022-10-09T19:05:37.980Z,101350.66
2022-10-09T19:10:53.234Z,101350.66
2022-10-09T19:16:08.253Z,101340.81
2022-10-09T19:21:23.255Z,101335.72
2022-10-09T19:26:38.584Z,101333.66
2022-10-09T19:31:54.240Z,101331.41
2022-10-09T19:37:09.207Z,101325.59
2022-10-09T19:42:24.809Z,101320.03
2022-10-09T19:47:41.281Z,101315.94
2022-10-09T19:52:56.234Z,101310.81
2022-10-09T19:58:11.222Z,101308.91
2022-10-09T20:03:26.539Z,101307.00
2022-10-09T20:08:42.222Z,101306.22
2022-10-09T20:13:57.237Z,101301.81
2022-10-09T20:19:12.234Z,101301.00
2022-10-09T20:24:27.315Z,101295.09
2022-10-09T20:29:42.578Z,101298.16
2022-10-09T20:34:58.569Z,101296.31
2022-10-09T20:40:14.531Z,101284.06
2022-10-09T20:45:30.563Z,101280.22
2022-10-09T20:50:46.226Z,101279.16
2022-10-09T20:56:01.186Z,101267.47
2022-10-09T21:01:16.351Z,101257.25
2022-10-09T21:06:31.315Z,101264.88
2022-10-09T21:11:46.225Z,101253.72
2022-10-09T21:17:01.263Z,101240.50
2022-10-09T21:22:16.231Z,101241.47
2022-10-09T21:27:31.277Z,101234.59
2022-10-09T21:32:46.222Z,101233.34
2022-10-09T21:38:02.021Z,101229.97
2022-10-09T21:43:18.251Z,101231.31
2022-10-09T21:48:33.643Z,101225.72
2022-10-09T21:53:49.485Z,101219.56
2022-10-09T21:59:05.603Z,101219.56
2022-10-09T22:04:21.265Z,101217.31
2022-10-09T22:09:36.236Z,101218.09
2022-10-09T22:14:51.002Z,101211.19
2022-10-09T22:20:06.527Z,101199.78
2022-10-09T22:25:22.303Z,101201.31
2022-10-09T22:30:37.282Z,101197.75
2022-10-09T22:35:52.211Z,101189.81
2022-10-09T22:41:07.287Z,101191.09
2022-10-09T22:46:22.247Z,101182.91
2022-10-09T22:51:37.228Z,101170.25
2022-10-09T22:56:52.358Z,101168.50
2022-10-09T23:02:07.408Z,101176.69
2022-10-09T23:07:22.262Z,101168.78
2022-10-09T23:12:37.313Z,101155.38
2022-10-09T23:17:52.237Z,101156.66
2022-10-09T23:23:07.077Z,101160.22
2022-10-09T23:28:22.576Z,101153.09
2022-10-09T23:33:38.578Z,101150.88
2022-10-09T23:38:54.538Z,101146.53
2022-10-09T23:44:10.265Z,101143.75
2022-10-09T23:49:25.080Z,101141.47
2022-10-09T23:54:40.342Z,101135.16
2022-10-09T23:59:55.631Z,101129.34
